createdAt,value
2022-11-08T00:03:03.033Z,100.00
2022-11-08T00:08:24.867Z,100.00
2022-11-08T00:13:46.664Z,100.00
2022-11-08T00:19:08.483Z,100.00
2022-11-08T00:24:30.300Z,100.00
2022-11-08T00:29:52.093Z,100.00
2022-11-08T00:35:13.947Z,100.00
2022-11-08T00:40:35.781Z,100.00
2022-11-08T00:45:57.774Z,100.00
2022-11-08T00:51:19.680Z,100.00
2022-11-08T00:56:41.834Z,100.00
2022-11-08T01:02:03.794Z,100.00
2022-11-08T01:07:25.921Z,100.00
2022-11-08T01:12:47.745Z,100.00
2022-11-08T01:18:11.095Z,100.00
2022-11-08T01:23:33.527Z,100.00
2022-11-08T01:28:56.451Z,100.00
2022-11-08T01:34:18.288Z,100.00
2022-11-08T01:39:40.087Z,100.00
2022-11-08T01:45:08.387Z,100.00
2022-11-08T01:50:30.355Z,100.00
2022-11-08T01:55:52.887Z,100.00
2022-11-08T02:01:15.209Z,100.00
2022-11-08T02:06:39.099Z,100.00
2022-11-08T02:12:00.924Z,100.00
2022-11-08T02:17:22.762Z,100.00
2022-11-08T02:23:04.179Z,100.00
2022-11-08T02:28:26.299Z,100.00
2022-11-08T02:33:49.326Z,100.00
2022-11-08T02:39:11.166Z,100.00
2022-11-08T02:44:32.997Z,100.00
2022-11-08T02:49:54.826Z,100.00
2022-11-08T02:55:16.633Z,100.00
2022-11-08T03:00:39.596Z,100.00
2022-11-08T03:06:01.461Z,100.00
2022-11-08T03:11:23.265Z,100.00
2022-11-08T03:16:45.138Z,100.00
2022-11-08T03:22:06.969Z,100.00
2022-11-08T03:27:29.078Z,100.00
2022-11-08T03:32:50.868Z,100.00
2022-11-08T03:38:12.672Z,100.00
2022-11-08T03:43:34.729Z,100.00
2022-11-08T03:48:56.539Z,100.00
2022-11-08T03:54:18.317Z,100.00
2022-11-08T03:59:40.101Z,100.00
2022-11-08T04:05:02.060Z,100.00
2022-11-08T04:10:23.937Z,100.00
2022-11-08T04:15:46.952Z,100.00
2022-11-08T04:21:16.548Z,100.00
2022-11-08T04:26:39.631Z,100.00
2022-11-08T04:32:01.449Z,100.00
2022-11-08T04:37:23.362Z,100.00
2022-11-08T04:42:45.202Z,100.00
2022-11-08T04:48:07.047Z,100.00
2022-11-08T04:53:29.120Z,100.00
2022-11-08T04:58:53.937Z,100.00
2022-11-08T05:04:15.848Z,100.00
2022-11-08T05:09:37.641Z,100.00
2022-11-08T05:14:59.508Z,100.00
2022-11-08T05:20:21.342Z,100.00
2022-11-08T05:25:43.177Z,100.00
2022-11-08T05:31:05.147Z,100.00
2022-11-08T05:36:28.133Z,100.00
2022-11-08T05:41:50.034Z,100.00
2022-11-08T05:47:11.848Z,100.00
2022-11-08T05:52:33.666Z,100.00
2022-11-08T05:57:55.498Z,100.00
2022-11-08T06:03:20.923Z,100.00
2022-11-08T06:08:49.992Z,100.00
2022-11-08T06:14:13.464Z,98.92
2022-11-08T06:19:35.328Z,84.82
2022-11-08T06:24:58.609Z,83.32
2022-11-08T06:30:20.476Z,78.35
2022-11-08T06:35:42.731Z,84.07
2022-11-08T06:41:04.589Z,84.20
2022-11-08T06:46:26.668Z,78.84
2022-11-08T06:51:48.498Z,77.06
2022-11-08T06:57:10.337Z,82.92
2022-11-08T07:02:32.295Z,86.58
2022-11-08T07:07:54.522Z,87.10
2022-11-08T07:13:16.621Z,88.46
2022-11-08T07:18:38.866Z,89.05
2022-11-08T07:24:00.747Z,89.00
2022-11-08T07:29:22.650Z,89.20
2022-11-08T07:34:44.496Z,87.51
2022-11-08T07:40:07.109Z,85.22
2022-11-08T07:45:28.939Z,76.36
2022-11-08T07:50:51.521Z,50.34
2022-11-08T07:56:13.391Z,47.00
2022-11-08T08:01:35.979Z,41.73
2022-11-08T08:06:58.961Z,39.79
2022-11-08T08:12:20.774Z,36.74
2022-11-08T08:17:42.575Z,36.52
2022-11-08T08:23:04.803Z,34.78
2022-11-08T08:28:26.611Z,31.91
2022-11-08T08:33:48.462Z,32.08
2022-11-08T08:39:10.406Z,30.44
2022-11-08T08:44:32.211Z,32.58
2022-11-08T08:49:54.441Z,31.34
2022-11-08T08:55:16.595Z,30.67
2022-11-08T09:06:20.287Z,30.07
2022-11-08T09:11:43.141Z,33.71
2022-11-08T09:17:04.962Z,31.16
2022-11-08T09:22:26.797Z,30.46
2022-11-08T09:27:48.673Z,31.78
2022-11-08T09:33:10.549Z,31.98
2022-11-08T09:38:32.732Z,30.30
2022-11-08T09:44:00.284Z,38.31
2022-11-08T09:49:42.202Z,44.31
2022-11-08T09:55:28.537Z,46.67
2022-11-08T10:00:50.447Z,49.29
2022-11-08T10:06:30.666Z,51.87
2022-11-08T10:12:00.321Z,53.79
2022-11-08T10:17:24.947Z,55.62
2022-11-08T10:23:05.435Z,57.42
2022-11-08T10:28:36.721Z,59.48
2022-11-08T10:34:00.745Z,59.65
2022-11-08T10:39:38.092Z,59.75
2022-11-08T10:45:00.225Z,60.54
2022-11-08T10:50:50.007Z,60.49
2022-11-08T10:56:11.806Z,61.03
2022-11-08T11:01:33.668Z,60.94
2022-11-08T11:07:02.098Z,62.04
2022-11-08T11:12:24.159Z,61.64
2022-11-08T11:17:46.818Z,61.52
2022-11-08T11:23:11.313Z,61.97
2022-11-08T11:28:34.105Z,62.09
2022-11-08T11:33:56.177Z,62.48
2022-11-08T11:39:47.593Z,61.91
2022-11-08T11:45:17.514Z,61.79
2022-11-08T11:50:44.286Z,62.09
2022-11-08T11:56:24.805Z,61.58
2022-11-08T12:02:08.019Z,61.52
2022-11-08T12:07:31.421Z,61.80
2022-11-08T12:13:22.962Z,62.07
2022-11-08T12:18:49.430Z,62.45
2022-11-08T12:24:26.641Z,62.15
2022-11-08T12:30:35.893Z,61.97
2022-11-08T12:36:11.734Z,62.47
2022-11-08T12:42:01.847Z,62.43
2022-11-08T12:47:39.302Z,61.98
2022-11-08T12:53:20.960Z,61.87
2022-11-08T12:58:46.031Z,62.36
2022-11-08T13:04:17.643Z,62.67
2022-11-08T13:09:57.689Z,63.25
2022-11-08T13:15:22.511Z,63.58
2022-11-08T13:20:48.863Z,63.97
2022-11-08T13:26:20.120Z,63.81
2022-11-08T13:31:44.970Z,64.44
2022-11-08T13:37:37.264Z,64.26
2022-11-08T13:43:19.612Z,64.60
2022-11-08T13:48:41.790Z,65.11
2022-11-08T13:54:23.841Z,64.66
2022-11-08T13:59:45.607Z,65.14
2022-11-08T14:05:22.708Z,64.97
2022-11-08T14:11:05.712Z,65.46
2022-11-08T14:16:33.349Z,66.01
2022-11-08T14:21:58.091Z,66.43
2022-11-08T14:27:38.299Z,66.98
2022-11-08T14:33:27.623Z,67.47
2022-11-08T14:38:59.164Z,68.51
2022-11-08T14:44:22.137Z,69.08
2022-11-08T14:49:47.780Z,69.59
2022-11-08T14:55:12.214Z,70.04
2022-11-08T15:00:34.069Z,70.88
2022-11-08T15:06:00.986Z,71.32
2022-11-08T15:11:30.721Z,72.07
2022-11-08T15:16:58.524Z,72.26
2022-11-08T15:22:30.281Z,73.00
2022-11-08T15:28:13.207Z,72.65
2022-11-08T15:33:37.441Z,73.27
2022-11-08T15:39:00.374Z,73.69
2022-11-08T15:44:24.580Z,74.04
2022-11-08T15:49:46.388Z,74.51
2022-11-08T15:55:08.712Z,74.98
2022-11-08T16:00:33.269Z,75.38
2022-11-08T16:05:55.682Z,75.43
2022-11-08T16:11:21.516Z,75.88
2022-11-08T16:16:43.974Z,76.76
2022-11-08T16:22:05.791Z,77.40
2022-11-08T16:27:27.625Z,77.82
2022-11-08T16:32:49.506Z,78.50
2022-11-08T16:38:11.346Z,79.03
2022-11-08T16:43:33.656Z,80.15
2022-11-08T16:48:58.073Z,81.03
2022-11-08T16:54:21.756Z,81.44
2022-11-08T16:59:43.584Z,82.28
2022-11-08T17:05:05.751Z,82.59
2022-11-08T17:10:29.680Z,83.49
2022-11-08T17:15:51.600Z,84.45
2022-11-08T17:21:43.172Z,85.51
2022-11-08T17:26:57.021Z,85.46
2022-11-08T17:32:18.885Z,86.44
2022-11-08T17:37:41.001Z,87.30
2022-11-08T17:43:02.817Z,88.16
2022-11-08T17:48:25.522Z,88.96
2022-11-08T17:53:47.404Z,89.96
2022-11-08T17:59:09.207Z,90.44
2022-11-08T18:04:31.137Z,90.97
2022-11-08T18:09:52.982Z,92.14
2022-11-08T18:15:14.838Z,93.12
2022-11-08T18:20:36.866Z,93.47
2022-11-08T18:25:58.963Z,94.66
2022-11-08T18:31:21.757Z,95.03
2022-11-08T18:36:43.573Z,96.42
2022-11-08T18:42:05.460Z,96.56
2022-11-08T18:47:27.288Z,96.91
2022-11-08T18:52:49.105Z,97.87
2022-11-08T18:58:11.096Z,99.47
2022-11-08T19:03:33.192Z,98.71
2022-11-08T19:08:55.053Z,100.00
2022-11-08T19:14:16.965Z,100.00
2022-11-08T19:19:38.771Z,100.00
2022-11-08T19:25:00.608Z,100.00
2022-11-08T19:30:22.758Z,100.00
2022-11-08T19:35:44.958Z,100.00
2022-11-08T19:41:09.429Z,100.00
2022-11-08T19:46:31.862Z,100.00
2022-11-08T19:51:54.095Z,100.00
2022-11-08T19:57:16.318Z,100.00
2022-11-08T20:02:38.503Z,100.00
2022-11-08T20:08:00.904Z,100.00
2022-11-08T20:13:23.087Z,100.00
2022-11-08T20:18:45.596Z,100.00
2022-11-08T20:24:08.649Z,100.00
2022-11-08T20:29:30.517Z,100.00
2022-11-08T20:34:52.386Z,100.00
2022-11-08T20:40:14.250Z,100.00
2022-11-08T20:45:39.576Z,100.00
2022-11-08T20:51:03.856Z,100.00
2022-11-08T20:56:26.528Z,100.00
2022-11-08T21:01:48.471Z,100.00
2022-11-08T21:12:52.179Z,100.00
2022-11-08T21:18:15.579Z,100.00
2022-11-08T21:23:39.264Z,100.00
2022-11-08T21:29:01.138Z,100.00
2022-11-08T21:34:25.027Z,100.00
2022-11-08T21:39:50.044Z,100.00
2022-11-08T21:45:11.889Z,100.00
2022-11-08T21:50:34.976Z,100.00
2022-11-08T21:55:58.040Z,100.00
2022-11-08T22:01:22.245Z,100.00
2022-11-08T22:06:47.879Z,100.00
2022-11-08T22:12:09.939Z,100.00
2022-11-08T22:17:31.816Z,100.00
2022-11-08T22:22:53.651Z,100.00
2022-11-08T22:28:15.653Z,100.00
2022-11-08T22:33:37.691Z,100.00
2022-11-08T22:38:59.770Z,100.00
2022-11-08T22:44:21.915Z,100.00
2022-11-08T22:49:45.165Z,100.00
2022-11-08T22:55:07.697Z,100.00
2022-11-08T23:00:29.693Z,100.00
2022-11-08T23:05:52.367Z,100.00
2022-11-08T23:11:14.353Z,100.00
2022-11-08T23:16:38.963Z,100.00
2022-11-08T23:22:01.765Z,100.00
2022-11-08T23:27:23.822Z,100.00
2022-11-08T23:32:48.186Z,100.00
2022-11-08T23:38:10.040Z,100.00
2022-11-08T23:43:31.873Z,100.00
2022-11-08T23:48:53.654Z,100.00
2022-11-08T23:54:15.910Z,100.00
2022-11-08T23:59:37.680Z,100.00
